createdAt,value
2022-09-15T00:01:11.440Z,100561.94
2022-09-15T00:03:40.107Z,100550.22
2022-09-15T00:06:09.276Z,100553.09
2022-09-15T00:08:37.938Z,100549.97
2022-09-15T00:11:10.855Z,100551.22
2022-09-15T00:13:40.112Z,100553.00
2022-09-15T00:16:12.491Z,100557.97
2022-09-15T00:18:44.049Z,100549.91
2022-09-15T00:21:14.539Z,100557.94
2022-09-15T00:23:43.320Z,100558.41
2022-09-15T00:26:12.583Z,100560.84
2022-09-15T00:28:41.462Z,100546.13
2022-09-15T00:31:11.359Z,100549.47
2022-09-15T00:33:40.083Z,100552.50
2022-09-15T00:36:10.299Z,100549.72
2022-09-15T00:38:39.043Z,100548.19
2022-09-15T00:41:08.589Z,100539.78
2022-09-15T00:43:45.697Z,100539.84
2022-09-15T00:46:15.269Z,100546.16
2022-09-15T00:48:59.317Z,100540.69
2022-09-15T00:51:33.722Z,100539.25
2022-09-15T00:54:04.313Z,100542.41
2022-09-15T00:56:33.837Z,100543.69
2022-09-15T00:59:03.780Z,100543.75
2022-09-15T01:01:32.677Z,100545.94
2022-09-15T01:04:01.535Z,100535.47
2022-09-15T01:06:33.129Z,100539.22
2022-09-15T01:09:08.984Z,100541.63
2022-09-15T01:11:37.702Z,100542.31
2022-09-15T01:14:06.019Z,100543.66
2022-09-15T01:16:52.826Z,100535.44
2022-09-15T01:19:22.118Z,100545.06
2022-09-15T01:21:59.618Z,100544.25
2022-09-15T01:24:46.975Z,100541.38
2022-09-15T01:27:42.826Z,100540.81
2022-09-15T01:30:12.375Z,100540.97
2022-09-15T01:33:02.703Z,100539.56
2022-09-15T01:35:49.389Z,100542.38
2022-09-15T01:38:35.065Z,100536.53
2022-09-15T01:41:29.892Z,100541.03
2022-09-15T01:44:05.424Z,100545.84
2022-09-15T01:46:36.195Z,100546.84
2022-09-15T01:49:07.439Z,100542.38
2022-09-15T01:51:36.459Z,100541.56
2022-09-15T01:54:06.015Z,100546.41
2022-09-15T01:56:36.467Z,100545.09
2022-09-15T01:59:05.169Z,100541.38
2022-09-15T02:01:50.986Z,100545.25
2022-09-15T02:04:32.278Z,100537.97
2022-09-15T02:07:04.130Z,100539.13
2022-09-15T02:09:42.853Z,100541.63
2022-09-15T02:12:12.293Z,100543.31
2022-09-15T02:14:51.809Z,100547.50
2022-09-15T02:17:20.889Z,100542.19
2022-09-15T02:20:18.487Z,100537.16
2022-09-15T02:22:50.405Z,100534.22
2022-09-15T02:25:22.108Z,100537.69
2022-09-15T02:27:52.623Z,100524.97
2022-09-15T02:30:21.330Z,100527.28
2022-09-15T02:32:58.123Z,100522.50
2022-09-15T02:35:28.667Z,100528.97
2022-09-15T02:37:58.001Z,100523.38
2022-09-15T02:40:27.824Z,100522.50
2022-09-15T02:42:57.229Z,100521.88
2022-09-15T02:45:25.764Z,100528.31
2022-09-15T02:47:54.138Z,100538.22
2022-09-15T02:50:22.422Z,100540.75
2022-09-15T02:52:50.713Z,100540.72
2022-09-15T02:55:19.220Z,100540.19
2022-09-15T02:57:47.936Z,100552.97
2022-09-15T03:00:17.277Z,100545.69
2022-09-15T03:02:47.173Z,100546.88
2022-09-15T03:05:16.525Z,100548.69
2022-09-15T03:07:44.907Z,100550.09
2022-09-15T03:10:13.606Z,100556.53
2022-09-15T03:12:43.924Z,100555.72
2022-09-15T03:15:13.893Z,100549.78
2022-09-15T03:17:43.289Z,100562.97
2022-09-15T03:20:12.515Z,100566.13
2022-09-15T03:22:40.885Z,100561.31
2022-09-15T03:25:10.590Z,100557.47
2022-09-15T03:27:39.229Z,100560.50
2022-09-15T03:30:07.967Z,100565.03
2022-09-15T03:32:37.742Z,100561.03
2022-09-15T03:35:06.811Z,100562.47
2022-09-15T03:37:36.369Z,100563.31
2022-09-15T03:40:05.160Z,100558.69
2022-09-15T03:42:34.509Z,100558.84
2022-09-15T03:45:03.636Z,100556.56
2022-09-15T03:47:32.654Z,100562.72
2022-09-15T03:50:01.971Z,100560.03
2022-09-15T03:52:31.883Z,100551.47
2022-09-15T03:55:00.183Z,100561.81
2022-09-15T03:57:28.739Z,100565.19
2022-09-15T03:59:57.001Z,100563.69
2022-09-15T04:02:25.318Z,100555.53
2022-09-15T04:04:53.668Z,100561.75
2022-09-15T04:07:21.980Z,100563.56
2022-09-15T04:09:50.253Z,100563.38
2022-09-15T04:12:18.683Z,100569.69
2022-09-15T04:14:47.078Z,100573.97
2022-09-15T04:17:16.196Z,100565.88
2022-09-15T04:19:44.546Z,100562.09
2022-09-15T04:22:17.550Z,100572.28
2022-09-15T04:24:48.046Z,100572.41
2022-09-15T04:27:17.185Z,100572.47
2022-09-15T04:29:46.139Z,100567.63
2022-09-15T04:32:14.463Z,100580.31
2022-09-15T04:34:42.763Z,100563.59
2022-09-15T04:37:11.325Z,100567.56
2022-09-15T04:39:39.638Z,100569.47
2022-09-15T04:42:08.021Z,100570.91
2022-09-15T04:44:36.351Z,100573.72
2022-09-15T04:47:04.711Z,100567.78
2022-09-15T04:49:33.914Z,100575.19
2022-09-15T04:52:03.360Z,100573.06
2022-09-15T04:54:35.633Z,100575.09
2022-09-15T04:57:04.016Z,100567.56
2022-09-15T04:59:32.494Z,100570.50
2022-09-15T05:02:00.862Z,100571.00
2022-09-15T05:04:29.270Z,100581.59
2022-09-15T05:06:57.541Z,100575.09
2022-09-15T05:09:27.788Z,100578.59
2022-09-15T05:11:56.683Z,100577.41
2022-09-15T05:14:25.001Z,100577.66
2022-09-15T05:16:53.414Z,100577.88
2022-09-15T05:21:50.958Z,100577.88
2022-09-15T05:24:19.380Z,100561.28
2022-09-15T05:26:47.735Z,100563.63
2022-09-15T05:29:15.981Z,100565.34
2022-09-15T05:31:44.313Z,100575.03
2022-09-15T05:34:12.739Z,100569.91
2022-09-15T05:36:41.407Z,100578.81
2022-09-15T05:39:09.705Z,100576.47
2022-09-15T05:41:39.004Z,100581.00
2022-09-15T05:44:07.266Z,100579.56
2022-09-15T05:46:35.562Z,100575.47
2022-09-15T05:49:14.623Z,100579.78
2022-09-15T05:51:42.943Z,100587.78
2022-09-15T05:54:11.452Z,100603.06
2022-09-15T05:56:39.787Z,100596.44
2022-09-15T05:59:08.107Z,100599.00
2022-09-15T06:01:36.605Z,100603.22
2022-09-15T06:04:04.919Z,100616.66
2022-09-15T06:06:33.408Z,100613.25
2022-09-15T06:09:05.113Z,100609.81
2022-09-15T06:11:33.829Z,100611.28
2022-09-15T06:14:03.282Z,100609.78
2022-09-15T06:16:33.021Z,100609.28
2022-09-15T06:21:31.494Z,100618.44
2022-09-15T06:24:00.907Z,100624.59
2022-09-15T06:26:29.878Z,100629.78
2022-09-15T06:29:00.493Z,100628.19
2022-09-15T06:31:31.382Z,100636.53
2022-09-15T06:33:59.779Z,100630.28
2022-09-15T06:36:29.221Z,100635.59
2022-09-15T06:38:58.325Z,100637.72
2022-09-15T06:41:35.350Z,100639.66
2022-09-15T06:44:10.929Z,100637.28
2022-09-15T06:46:39.219Z,100637.25
2022-09-15T06:49:08.644Z,100643.16
2022-09-15T06:51:37.001Z,100647.06
2022-09-15T06:54:05.889Z,100647.53
2022-09-15T06:56:37.912Z,100652.50
2022-09-15T06:59:07.289Z,100650.00
2022-09-15T07:01:35.977Z,100654.19
2022-09-15T07:04:05.551Z,100659.03
2022-09-15T07:06:34.117Z,100657.78
2022-09-15T07:09:02.691Z,100658.09
2022-09-15T07:11:32.425Z,100664.47
2022-09-15T07:14:00.824Z,100675.25
2022-09-15T07:16:29.491Z,100667.78
2022-09-15T07:19:00.490Z,100674.34
2022-09-15T07:21:29.292Z,100687.09
2022-09-15T07:23:57.809Z,100679.25
2022-09-15T07:26:27.440Z,100686.66
2022-09-15T07:28:57.493Z,100683.31
2022-09-15T07:31:27.682Z,100681.97
2022-09-15T07:33:56.023Z,100687.41
2022-09-15T07:36:24.640Z,100685.13
2022-09-15T07:38:53.194Z,100682.81
2022-09-15T07:41:22.998Z,100690.19
2022-09-15T07:43:52.325Z,100688.78
2022-09-15T07:46:21.808Z,100686.28
2022-09-15T07:48:51.734Z,100680.50
2022-09-15T07:51:20.225Z,100688.56
2022-09-15T07:53:49.853Z,100694.69
2022-09-15T07:56:18.805Z,100692.09
2022-09-15T07:58:47.766Z,100703.22
2022-09-15T08:01:17.149Z,100704.41
2022-09-15T08:03:46.563Z,100705.78
2022-09-15T08:06:15.608Z,100701.75
2022-09-15T08:08:44.300Z,100702.69
2022-09-15T08:11:19.414Z,100701.06
2022-09-15T08:13:49.585Z,100706.09
2022-09-15T08:16:20.014Z,100708.38
2022-09-15T08:18:48.825Z,100698.38
2022-09-15T08:21:20.106Z,100706.69
2022-09-15T08:23:52.878Z,100716.56
2022-09-15T08:26:21.846Z,100717.31
2022-09-15T08:28:50.221Z,100719.22
2022-09-15T08:31:18.842Z,100724.06
2022-09-15T08:33:49.205Z,100725.50
2022-09-15T08:36:18.033Z,100733.19
2022-09-15T08:38:46.429Z,100731.22
2022-09-15T08:41:27.039Z,100739.59
2022-09-15T08:44:02.388Z,100742.22
2022-09-15T08:46:38.023Z,100742.34
2022-09-15T08:49:10.890Z,100740.34
2022-09-15T08:51:44.861Z,100736.78
2022-09-15T08:54:20.024Z,100751.31
2022-09-15T08:56:48.828Z,100745.63
2022-09-15T08:59:18.107Z,100748.00
2022-09-15T09:01:53.538Z,100750.88
2022-09-15T09:04:34.168Z,100746.88
2022-09-15T09:07:21.420Z,100752.78
2022-09-15T09:09:53.076Z,100760.66
2022-09-15T09:12:37.152Z,100758.84
2022-09-15T09:15:15.893Z,100768.13
2022-09-15T09:18:02.768Z,100768.31
2022-09-15T09:20:49.293Z,100775.16
2022-09-15T09:23:20.512Z,100778.63
2022-09-15T09:25:49.949Z,100771.94
2022-09-15T09:28:27.135Z,100777.56
2022-09-15T09:30:58.045Z,100774.34
2022-09-15T09:33:30.217Z,100780.41
2022-09-15T09:35:59.847Z,100767.00
2022-09-15T09:38:42.101Z,100775.25
2022-09-15T09:41:25.944Z,100775.28
2022-09-15T09:43:56.086Z,100766.31
2022-09-15T09:46:24.541Z,100772.34
2022-09-15T09:49:03.352Z,100768.38
2022-09-15T09:52:02.569Z,100775.72
2022-09-15T09:54:32.671Z,100778.50
2022-09-15T09:57:13.251Z,100763.56
2022-09-15T09:59:46.118Z,100765.50
2022-09-15T10:02:19.700Z,100763.69
2022-09-15T10:04:49.290Z,100765.63
2022-09-15T10:07:20.079Z,100767.09
2022-09-15T10:09:53.418Z,100774.72
2022-09-15T10:12:32.813Z,100778.63
2022-09-15T10:15:06.713Z,100777.78
2022-09-15T10:17:45.742Z,100774.69
2022-09-15T10:20:40.606Z,100779.13
2022-09-15T10:23:21.619Z,100781.94
2022-09-15T10:25:59.029Z,100784.19
2022-09-15T10:28:28.434Z,100774.09
2022-09-15T10:31:05.631Z,100773.13
2022-09-15T10:33:38.183Z,100775.97
2022-09-15T10:36:11.606Z,100774.00
2022-09-15T10:38:40.090Z,100774.41
2022-09-15T10:41:27.323Z,100784.44
2022-09-15T10:44:02.093Z,100776.69
2022-09-15T10:46:42.532Z,100787.59
2022-09-15T10:49:33.471Z,100775.03
2022-09-15T10:52:11.327Z,100769.19
2022-09-15T10:55:09.418Z,100778.25
2022-09-15T10:57:46.111Z,100775.56
2022-09-15T11:00:18.912Z,100779.56
2022-09-15T11:03:13.813Z,100785.25
2022-09-15T11:06:00.891Z,100783.34
2022-09-15T11:08:35.824Z,100794.16
2022-09-15T11:11:09.042Z,100795.59
2022-09-15T11:13:44.022Z,100793.72
2022-09-15T11:16:49.024Z,100794.56
2022-09-15T11:19:38.470Z,100797.81
2022-09-15T11:22:28.716Z,100793.91
2022-09-15T11:25:11.890Z,100797.16
2022-09-15T11:27:43.133Z,100798.41
2022-09-15T11:30:20.029Z,100800.16
2022-09-15T11:33:07.377Z,100802.16
2022-09-15T11:35:55.551Z,100811.31
2022-09-15T11:38:37.027Z,100802.22
2022-09-15T11:41:11.749Z,100812.19
2022-09-15T11:43:50.405Z,100812.72
2022-09-15T11:46:23.216Z,100811.34
2022-09-15T11:48:59.875Z,100805.78
2022-09-15T11:51:29.046Z,100816.00
2022-09-15T11:54:09.401Z,100809.03
2022-09-15T11:56:42.272Z,100811.19
2022-09-15T11:59:17.354Z,100810.00
2022-09-15T12:01:45.913Z,100816.28
2022-09-15T12:04:35.505Z,100809.19
2022-09-15T12:07:14.593Z,100809.91
2022-09-15T12:09:43.579Z,100812.38
2022-09-15T12:12:16.970Z,100808.75
2022-09-15T12:14:46.778Z,100793.41
2022-09-15T12:17:29.334Z,100807.09
2022-09-15T12:20:06.002Z,100798.69
2022-09-15T12:22:39.932Z,100792.28
2022-09-15T12:25:14.536Z,100800.63
2022-09-15T12:27:43.858Z,100789.47
2022-09-15T12:30:31.321Z,100792.41
2022-09-15T12:32:59.622Z,100787.78
2022-09-15T12:35:32.121Z,100799.91
2022-09-15T12:38:00.827Z,100791.13
2022-09-15T12:40:34.999Z,100790.03
2022-09-15T12:43:13.273Z,100795.13
2022-09-15T12:45:43.410Z,100785.28
2022-09-15T12:48:18.943Z,100782.13
2022-09-15T12:51:01.963Z,100780.41
2022-09-15T12:53:48.791Z,100783.53
2022-09-15T12:56:27.639Z,100782.75
2022-09-15T12:58:56.252Z,100788.50
2022-09-15T13:01:24.678Z,100786.81
2022-09-15T13:03:57.954Z,100788.03
2022-09-15T13:06:28.858Z,100791.13
2022-09-15T13:09:03.800Z,100781.91
2022-09-15T13:11:38.320Z,100794.63
2022-09-15T13:14:27.912Z,100792.38
2022-09-15T13:17:00.057Z,100794.47
2022-09-15T13:19:41.415Z,100793.25
2022-09-15T13:22:09.726Z,100793.94
2022-09-15T13:24:44.071Z,100793.34
2022-09-15T13:27:13.524Z,100787.81
2022-09-15T13:29:54.735Z,100781.16
2022-09-15T13:32:28.957Z,100789.47
2022-09-15T13:35:20.427Z,100797.31
2022-09-15T13:38:13.963Z,100808.78
2022-09-15T13:40:54.384Z,100811.72
2022-09-15T13:43:31.974Z,100830.16
2022-09-15T13:46:12.507Z,100825.47
2022-09-15T13:48:56.049Z,100826.31
2022-09-15T13:51:29.346Z,100828.13
2022-09-15T13:54:01.403Z,100827.84
2022-09-15T13:56:32.152Z,100836.59
2022-09-15T13:59:10.304Z,100838.00
2022-09-15T14:01:42.383Z,100827.88
2022-09-15T14:04:13.697Z,100821.78
2022-09-15T14:06:44.023Z,100824.25
2022-09-15T14:09:21.552Z,100822.75
2022-09-15T14:11:55.191Z,100818.22
2022-09-15T14:14:26.652Z,100825.19
2022-09-15T14:16:56.097Z,100821.31
2022-09-15T14:19:37.688Z,100815.91
2022-09-15T14:22:18.423Z,100813.13
2022-09-15T14:24:47.229Z,100815.00
2022-09-15T14:27:20.659Z,100821.59
2022-09-15T14:29:51.128Z,100828.47
2022-09-15T14:32:20.229Z,100824.34
2022-09-15T14:34:48.734Z,100836.41
2022-09-15T14:37:17.060Z,100821.69
2022-09-15T14:39:49.378Z,100832.66
2022-09-15T14:42:23.019Z,100827.00
2022-09-15T14:47:41.687Z,100828.97
2022-09-15T14:50:17.504Z,100818.16
2022-09-15T14:52:54.922Z,100828.88
2022-09-15T14:55:23.293Z,100819.94
2022-09-15T14:58:12.665Z,100825.03
2022-09-15T15:00:44.800Z,100820.22
2022-09-15T15:03:19.541Z,100817.81
2022-09-15T15:05:54.705Z,100825.88
2022-09-15T15:08:46.742Z,100824.84
2022-09-15T15:11:17.023Z,100820.78
2022-09-15T15:13:48.370Z,100837.50
2022-09-15T15:16:20.564Z,100838.00
2022-09-15T15:18:51.244Z,100837.72
2022-09-15T15:21:38.480Z,100839.00
2022-09-15T15:24:12.897Z,100837.34
2022-09-15T15:26:43.205Z,100849.19
2022-09-15T15:29:30.516Z,100836.50
2022-09-15T15:32:06.243Z,100838.00
2022-09-15T15:34:34.651Z,100838.63
2022-09-15T15:37:03.768Z,100840.75
2022-09-15T15:39:32.177Z,100848.16
2022-09-15T15:42:02.473Z,100849.16
2022-09-15T15:44:31.382Z,100859.34
2022-09-15T15:47:23.741Z,100852.16
2022-09-15T15:50:12.805Z,100859.13
2022-09-15T15:52:41.990Z,100856.84
2022-09-15T15:58:04.537Z,100854.47
2022-09-15T16:00:38.779Z,100860.75
2022-09-15T16:03:07.269Z,100861.41
2022-09-15T16:05:36.050Z,100862.22
2022-09-15T16:08:05.936Z,100851.81
2022-09-15T16:10:38.839Z,100854.13
2022-09-15T16:13:07.300Z,100857.91
2022-09-15T16:15:35.770Z,100858.03
2022-09-15T16:18:04.173Z,100851.63
2022-09-15T16:20:32.489Z,100854.22
2022-09-15T16:23:01.709Z,100851.03
2022-09-15T16:25:35.569Z,100854.03
2022-09-15T16:28:04.217Z,100851.63
2022-09-15T16:30:32.993Z,100856.50
2022-09-15T16:33:02.518Z,100851.22
2022-09-15T16:35:41.486Z,100852.53
2022-09-15T16:38:09.910Z,100864.06
2022-09-15T16:40:38.256Z,100857.97
2022-09-15T16:43:10.268Z,100854.38
2022-09-15T16:45:40.849Z,100863.16
2022-09-15T16:48:10.111Z,100856.41
2022-09-15T16:50:42.644Z,100862.91
2022-09-15T16:53:16.925Z,100852.94
2022-09-15T16:55:46.548Z,100847.59
2022-09-15T16:58:15.585Z,100863.13
2022-09-15T17:00:45.075Z,100863.56
2022-09-15T17:03:17.668Z,100870.66
2022-09-15T17:05:48.670Z,100860.41
2022-09-15T17:08:18.423Z,100859.78
2022-09-15T17:10:47.508Z,100862.88
2022-09-15T17:13:17.631Z,100872.00
2022-09-15T17:15:46.337Z,100870.38
2022-09-15T17:18:15.582Z,100861.03
2022-09-15T17:20:44.642Z,100859.34
2022-09-15T17:23:34.703Z,100864.94
2022-09-15T17:26:04.724Z,100869.50
2022-09-15T17:28:34.125Z,100869.50
2022-09-15T17:31:06.680Z,100872.59
2022-09-15T17:33:35.118Z,100867.06
2022-09-15T17:36:03.715Z,100863.63
2022-09-15T17:38:32.215Z,100862.44
2022-09-15T17:41:00.651Z,100865.66
2022-09-15T17:43:29.869Z,100862.38
2022-09-15T17:45:58.479Z,100865.31
2022-09-15T17:48:26.833Z,100859.56
2022-09-15T17:50:55.339Z,100865.91
2022-09-15T17:53:26.634Z,100859.78
2022-09-15T17:55:55.558Z,100870.47
2022-09-15T17:58:26.240Z,100870.38
2022-09-15T18:00:54.606Z,100878.09
2022-09-15T18:03:27.756Z,100871.59
2022-09-15T18:05:58.217Z,100878.69
2022-09-15T18:08:27.545Z,100880.63
2022-09-15T18:10:55.927Z,100885.75
2022-09-15T18:13:26.799Z,100884.97
2022-09-15T18:15:56.465Z,100885.06
2022-09-15T18:18:25.992Z,100881.69
2022-09-15T18:20:55.669Z,100893.69
2022-09-15T18:23:25.587Z,100887.50
2022-09-15T18:25:53.974Z,100878.59
2022-09-15T18:28:22.219Z,100893.03
2022-09-15T18:30:51.117Z,100895.66
2022-09-15T18:33:24.184Z,100892.88
2022-09-15T18:35:54.313Z,100895.22
2022-09-15T18:38:23.123Z,100900.44
2022-09-15T18:40:55.999Z,100894.63
2022-09-15T18:43:25.534Z,100899.75
2022-09-15T18:46:00.525Z,100892.97
2022-09-15T18:48:29.139Z,100898.72
2022-09-15T18:50:58.045Z,100907.59
2022-09-15T18:53:26.346Z,100915.22
2022-09-15T18:55:54.682Z,100910.59
2022-09-15T18:58:23.678Z,100914.78
2022-09-15T19:00:52.123Z,100916.69
2022-09-15T19:03:20.428Z,100913.75
2022-09-15T19:05:48.722Z,100920.16
2022-09-15T19:08:17.083Z,100923.91
2022-09-15T19:10:45.435Z,100924.28
2022-09-15T19:13:15.747Z,100920.38
2022-09-15T19:15:44.279Z,100921.09
2022-09-15T19:18:12.657Z,100918.50
2022-09-15T19:20:40.971Z,100920.97
2022-09-15T19:23:10.663Z,100922.34
2022-09-15T19:25:41.047Z,100927.38
2022-09-15T19:28:09.525Z,100924.47
2022-09-15T19:30:37.886Z,100925.84
2022-09-15T19:33:06.274Z,100931.38
2022-09-15T19:35:34.604Z,100930.06
2022-09-15T19:38:02.941Z,100933.47
2022-09-15T19:40:31.521Z,100936.16
2022-09-15T19:42:59.938Z,100931.53
2022-09-15T19:45:28.333Z,100929.94
2022-09-15T19:47:56.651Z,100932.88
2022-09-15T19:50:25.149Z,100928.50
2022-09-15T19:52:55.260Z,100934.94
2022-09-15T19:55:28.626Z,100936.22
2022-09-15T19:57:56.944Z,100931.84
2022-09-15T20:00:25.340Z,100933.69
2022-09-15T20:02:53.780Z,100933.06
2022-09-15T20:05:22.040Z,100929.97
2022-09-15T20:07:50.459Z,100924.28
2022-09-15T20:10:18.755Z,100929.72
2022-09-15T20:12:47.365Z,100935.59
2022-09-15T20:15:15.776Z,100932.22
2022-09-15T20:17:44.192Z,100940.78
2022-09-15T20:20:12.547Z,100941.00
2022-09-15T20:22:40.832Z,100941.22
2022-09-15T20:25:09.248Z,100948.31
2022-09-15T20:27:38.142Z,100942.88
2022-09-15T20:30:06.749Z,100942.22
2022-09-15T20:32:35.082Z,100942.84
2022-09-15T20:35:03.510Z,100945.34
2022-09-15T20:37:36.683Z,100945.94
2022-09-15T20:40:08.199Z,100954.50
2022-09-15T20:42:37.058Z,100955.75
2022-09-15T20:45:05.946Z,100948.44
2022-09-15T20:47:34.213Z,100954.06
2022-09-15T20:50:02.581Z,100962.06
2022-09-15T20:52:34.743Z,100970.44
2022-09-15T20:55:05.919Z,100953.72
2022-09-15T20:57:35.204Z,100962.50
2022-09-15T21:00:05.036Z,100967.72
2022-09-15T21:02:33.398Z,100979.41
2022-09-15T21:05:01.683Z,100969.59
2022-09-15T21:07:30.095Z,100970.44
2022-09-15T21:09:58.415Z,100971.91
2022-09-15T21:12:27.544Z,100976.28
2022-09-15T21:14:57.813Z,100968.75
2022-09-15T21:17:28.853Z,100975.44
2022-09-15T21:19:57.140Z,100974.19
2022-09-15T21:22:25.869Z,100966.66
2022-09-15T21:24:54.148Z,100964.78
2022-09-15T21:27:28.750Z,100961.63
2022-09-15T21:29:57.342Z,100952.78
2022-09-15T21:32:25.605Z,100952.78
2022-09-15T21:34:55.878Z,100955.94
2022-09-15T21:37:26.815Z,100961.38
2022-09-15T21:39:55.806Z,100960.13
2022-09-15T21:42:25.151Z,100963.69
2022-09-15T21:44:54.451Z,100971.19
2022-09-15T21:47:22.812Z,100958.41
2022-09-15T21:49:51.721Z,100951.69
2022-09-15T21:52:20.107Z,100951.50
2022-09-15T21:54:49.116Z,100961.50
2022-09-15T21:57:18.199Z,100954.41
2022-09-15T21:59:46.559Z,100957.38
2022-09-15T22:02:15.488Z,100966.22
2022-09-15T22:04:43.789Z,100964.13
2022-09-15T22:07:12.390Z,100965.78
2022-09-15T22:09:40.702Z,100966.19
2022-09-15T22:12:08.957Z,100969.56
2022-09-15T22:14:37.239Z,100970.22
2022-09-15T22:17:05.657Z,100967.50
2022-09-15T22:19:33.960Z,100969.16
2022-09-15T22:22:02.285Z,100966.44
2022-09-15T22:24:30.641Z,100976.03
2022-09-15T22:26:58.939Z,100969.16
2022-09-15T22:29:28.283Z,100969.81
2022-09-15T22:31:56.633Z,100972.50
2022-09-15T22:34:24.981Z,100970.00
2022-09-15T22:36:53.265Z,100975.81
2022-09-15T22:39:21.717Z,100972.50
2022-09-15T22:41:55.338Z,100973.75
2022-09-15T22:44:23.623Z,100974.81
2022-09-15T22:46:52.184Z,100980.44
2022-09-15T22:49:20.614Z,100984.63
2022-09-15T22:51:48.940Z,100976.69
2022-09-15T22:54:17.224Z,100960.41
2022-09-15T22:56:46.181Z,100960.81
2022-09-15T22:59:14.851Z,100963.75
2022-09-15T23:01:43.484Z,100960.19
2022-09-15T23:04:11.842Z,100966.66
2022-09-15T23:06:40.179Z,100963.72
2022-09-15T23:09:09.562Z,100960.41
2022-09-15T23:11:43.963Z,100964.16
2022-09-15T23:14:18.740Z,100969.81
2022-09-15T23:16:48.652Z,100964.16
2022-09-15T23:19:20.740Z,100960.41
2022-09-15T23:21:50.662Z,100970.44
2022-09-15T23:24:20.673Z,100963.75
2022-09-15T23:26:50.768Z,100957.69
2022-09-15T23:29:20.713Z,100957.91
2022-09-15T23:31:50.694Z,100950.81
2022-09-15T23:34:19.556Z,100955.59
2022-09-15T23:36:47.860Z,100954.13
2022-09-15T23:39:16.265Z,100946.00
2022-09-15T23:41:44.527Z,100951.03
2022-09-15T23:44:12.787Z,100946.03
2022-09-15T23:46:41.179Z,100949.56
2022-09-15T23:49:09.730Z,100944.31
2022-09-15T23:51:37.989Z,100937.44
2022-09-15T23:54:06.395Z,100939.88
2022-09-15T23:56:34.686Z,100941.94
2022-09-15T23:59:03.009Z,100938.94
